createdAt,value
2023-01-08T00:01:40.594Z,3.67
2023-01-08T00:04:11.056Z,3.63
2023-01-08T00:06:39.838Z,3.90
2023-01-08T00:09:08.271Z,4.63
2023-01-08T00:11:36.710Z,4.30
2023-01-08T00:14:05.429Z,4.53
2023-01-08T00:16:33.994Z,4.22
2023-01-08T00:19:02.566Z,3.92
2023-01-08T00:21:32.441Z,4.50
2023-01-08T00:24:01.024Z,3.70
2023-01-08T00:26:29.902Z,4.68
2023-01-08T00:28:58.980Z,4.75
2023-01-08T00:31:27.555Z,4.53
2023-01-08T00:33:56.043Z,3.70
2023-01-08T00:36:24.469Z,4.72
2023-01-08T00:38:54.277Z,4.72
2023-01-08T00:41:23.511Z,3.60
2023-01-08T00:43:51.975Z,4.15
2023-01-08T00:46:20.574Z,3.90
2023-01-08T00:48:49.002Z,3.85
2023-01-08T00:51:17.469Z,4.22
2023-01-08T00:53:45.897Z,3.20
2023-01-08T00:56:15.793Z,3.60
2023-01-08T00:58:44.298Z,4.35
2023-01-08T01:01:14.115Z,3.72
2023-01-08T01:03:43.290Z,3.95
2023-01-08T01:06:12.952Z,3.97
2023-01-08T01:08:42.019Z,6.75
2023-01-08T01:11:11.442Z,7.18
2023-01-08T01:13:41.320Z,3.70
2023-01-08T01:16:10.024Z,3.58
2023-01-08T01:18:38.564Z,3.75
2023-01-08T01:21:11.408Z,2.97
2023-01-08T01:23:40.121Z,3.08
2023-01-08T01:26:16.414Z,3.13
2023-01-08T01:31:17.501Z,3.28
2023-01-08T01:33:46.394Z,3.40
2023-01-08T01:36:16.695Z,3.20
2023-01-08T01:38:45.391Z,3.28
2023-01-08T01:41:22.729Z,3.38
2023-01-08T01:43:52.873Z,2.78
2023-01-08T01:49:00.446Z,3.30
2023-01-08T01:51:33.720Z,3.50
2023-01-08T01:54:04.791Z,3.33
2023-01-08T01:56:34.601Z,3.15
2023-01-08T01:59:05.590Z,3.20
2023-01-08T02:01:35.459Z,3.25
2023-01-08T02:04:04.254Z,3.08
2023-01-08T02:06:38.696Z,2.88
2023-01-08T02:09:15.470Z,3.60
2023-01-08T02:11:48.335Z,3.47
2023-01-08T02:14:26.412Z,3.53
2023-01-08T02:17:00.969Z,3.17
2023-01-08T02:19:41.430Z,2.95
2023-01-08T02:22:23.246Z,3.13
2023-01-08T02:24:57.025Z,2.75
2023-01-08T02:27:30.718Z,3.28
2023-01-08T02:29:59.489Z,3.38
2023-01-08T02:32:28.871Z,3.08
2023-01-08T02:34:57.331Z,2.92
2023-01-08T02:37:26.519Z,2.90
2023-01-08T02:40:07.116Z,2.72
2023-01-08T02:42:45.082Z,3.25
2023-01-08T02:45:27.210Z,3.58
2023-01-08T02:48:00.671Z,3.15
2023-01-08T02:50:32.932Z,3.25
2023-01-08T02:53:09.761Z,3.42
2023-01-08T02:55:41.700Z,3.47
2023-01-08T02:58:12.537Z,3.40
2023-01-08T03:00:43.659Z,3.20
2023-01-08T03:03:17.679Z,3.22
2023-01-08T03:05:51.121Z,3.65
2023-01-08T03:08:20.659Z,3.83
2023-01-08T03:10:56.463Z,3.75
2023-01-08T03:13:30.537Z,3.40
2023-01-08T03:16:02.078Z,3.72
2023-01-08T03:18:36.978Z,3.30
2023-01-08T03:21:07.781Z,3.30
2023-01-08T03:23:38.049Z,3.58
2023-01-08T03:26:07.828Z,3.08
2023-01-08T03:28:43.015Z,3.10
2023-01-08T03:31:15.802Z,3.20
2023-01-08T03:33:46.500Z,3.50
2023-01-08T03:36:18.449Z,3.92
2023-01-08T03:38:53.137Z,3.75
2023-01-08T03:41:25.857Z,3.45
2023-01-08T03:43:55.682Z,3.35
2023-01-08T03:46:31.590Z,4.22
2023-01-08T03:49:01.767Z,3.83
2023-01-08T03:54:00.552Z,3.08
2023-01-08T03:56:31.635Z,3.17
2023-01-08T03:59:01.504Z,3.90
2023-01-08T04:01:30.158Z,3.50
2023-01-08T04:03:59.044Z,3.65
2023-01-08T04:06:27.545Z,3.35
2023-01-08T04:08:56.005Z,3.13
2023-01-08T04:11:24.448Z,3.67
2023-01-08T04:13:52.883Z,3.80
2023-01-08T04:16:25.144Z,3.50
2023-01-08T04:18:53.787Z,3.42
2023-01-08T04:21:22.389Z,2.88
2023-01-08T04:23:50.813Z,3.33
2023-01-08T04:26:19.317Z,2.90
2023-01-08T04:28:47.796Z,3.08
2023-01-08T04:31:16.349Z,2.80
2023-01-08T04:33:46.199Z,2.80
2023-01-08T04:36:14.774Z,2.67
2023-01-08T04:38:43.352Z,2.83
2023-01-08T04:41:12.060Z,3.63
2023-01-08T04:43:40.561Z,3.42
2023-01-08T04:46:09.088Z,3.80
2023-01-08T04:48:38.041Z,3.03
2023-01-08T04:51:08.201Z,3.30
2023-01-08T04:53:38.197Z,3.00
2023-01-08T04:56:07.970Z,3.80
2023-01-08T04:58:37.799Z,3.28
2023-01-08T05:01:12.107Z,3.45
2023-01-08T05:03:40.866Z,3.22
2023-01-08T05:06:10.859Z,3.83
2023-01-08T05:08:39.385Z,3.85
2023-01-08T05:11:07.861Z,3.95
2023-01-08T05:13:36.365Z,3.92
2023-01-08T05:16:05.532Z,3.97
2023-01-08T05:18:34.105Z,4.13
2023-01-08T05:21:03.084Z,3.85
2023-01-08T05:23:34.294Z,3.40
2023-01-08T05:26:05.587Z,3.55
2023-01-08T05:28:35.134Z,3.28
2023-01-08T05:31:03.600Z,3.45
2023-01-08T05:33:32.640Z,3.20
2023-01-08T05:36:01.183Z,3.78
2023-01-08T05:38:29.604Z,3.80
2023-01-08T05:40:59.490Z,3.80
2023-01-08T05:43:27.963Z,3.90
2023-01-08T05:45:59.195Z,3.67
2023-01-08T05:48:27.919Z,3.75
2023-01-08T05:50:56.357Z,3.00
2023-01-08T05:53:24.994Z,3.20
2023-01-08T05:55:53.416Z,2.90
2023-01-08T05:58:23.394Z,3.63
2023-01-08T06:00:51.851Z,3.13
2023-01-08T06:03:21.600Z,2.70
2023-01-08T06:05:50.108Z,3.22
2023-01-08T06:08:18.592Z,3.65
2023-01-08T06:10:47.036Z,2.85
2023-01-08T06:13:15.527Z,3.28
2023-01-08T06:15:45.375Z,4.20
2023-01-08T06:18:13.862Z,3.83
2023-01-08T06:20:42.367Z,3.55
2023-01-08T06:23:10.834Z,3.08
2023-01-08T06:25:39.262Z,3.08
2023-01-08T06:28:08.452Z,3.10
2023-01-08T06:30:36.969Z,2.58
2023-01-08T06:33:06.786Z,3.30
2023-01-08T06:35:35.307Z,3.20
2023-01-08T06:38:03.818Z,3.22
2023-01-08T06:40:32.360Z,3.13
2023-01-08T06:43:02.628Z,2.88
2023-01-08T06:45:31.246Z,2.88
2023-01-08T06:48:02.516Z,3.10
2023-01-08T06:50:33.367Z,3.55
2023-01-08T06:53:02.093Z,3.33
2023-01-08T06:55:30.559Z,3.03
2023-01-08T06:57:59.802Z,3.83
2023-01-08T07:00:28.550Z,4.60
2023-01-08T07:02:57.413Z,4.50
2023-01-08T07:05:25.984Z,4.22
2023-01-08T07:07:56.104Z,4.35
2023-01-08T07:12:52.951Z,4.20
2023-01-08T07:15:21.475Z,4.05
2023-01-08T07:17:50.072Z,4.03
2023-01-08T07:20:18.627Z,4.22
2023-01-08T07:22:47.084Z,4.78
2023-01-08T07:25:16.949Z,4.55
2023-01-08T07:27:45.408Z,3.95
2023-01-08T07:30:28.790Z,3.65
2023-01-08T07:33:01.223Z,3.83
2023-01-08T07:35:30.175Z,4.13
2023-01-08T07:37:58.611Z,3.70
2023-01-08T07:40:28.437Z,3.72
2023-01-08T07:43:00.474Z,3.65
2023-01-08T07:45:29.587Z,4.00
2023-01-08T07:47:59.050Z,4.88
2023-01-08T07:50:28.104Z,4.13
2023-01-08T07:52:58.720Z,3.38
2023-01-08T07:55:30.693Z,3.30
2023-01-08T07:57:59.918Z,3.30
2023-01-08T08:00:28.710Z,3.17
2023-01-08T08:02:57.311Z,3.10
2023-01-08T08:05:25.913Z,6.80
2023-01-08T08:07:54.358Z,5.80
2023-01-08T08:10:22.817Z,5.53
2023-01-08T08:12:52.645Z,4.90
2023-01-08T08:15:21.078Z,4.88
2023-01-08T08:17:50.135Z,4.88
2023-01-08T08:20:18.575Z,5.30
2023-01-08T08:22:47.009Z,4.57
2023-01-08T08:25:16.057Z,5.30
2023-01-08T08:27:45.491Z,4.70
2023-01-08T08:30:15.646Z,6.25
2023-01-08T08:32:44.144Z,5.13
2023-01-08T08:35:12.684Z,4.70
2023-01-08T08:37:41.135Z,4.82
2023-01-08T08:40:10.493Z,4.35
2023-01-08T08:42:38.971Z,5.13
2023-01-08T08:45:08.468Z,5.00
2023-01-08T08:47:38.335Z,5.03
2023-01-08T08:50:08.053Z,4.82
2023-01-08T08:52:37.505Z,5.07
2023-01-08T08:55:07.108Z,5.05
2023-01-08T08:57:35.619Z,4.60
2023-01-08T09:00:04.358Z,5.00
2023-01-08T09:02:33.107Z,4.22
2023-01-08T09:05:02.996Z,4.40
2023-01-08T09:07:31.598Z,4.22
2023-01-08T09:10:00.171Z,4.22
2023-01-08T09:12:28.701Z,4.40
2023-01-08T09:14:57.335Z,6.07
2023-01-08T09:17:26.391Z,5.30
2023-01-08T09:19:54.919Z,5.45
2023-01-08T09:22:24.812Z,5.45
2023-01-08T09:24:55.086Z,5.60
2023-01-08T09:27:23.642Z,7.25
2023-01-08T09:29:52.079Z,10.63
2023-01-08T09:32:21.272Z,13.38
2023-01-08T09:34:49.869Z,8.30
2023-01-08T09:37:18.308Z,7.07
2023-01-08T09:39:54.290Z,5.93
2023-01-08T09:42:31.100Z,5.07
2023-01-08T09:45:03.608Z,3.90
2023-01-08T09:47:37.766Z,4.95
2023-01-08T09:50:12.987Z,4.47
2023-01-08T09:52:43.656Z,4.28
2023-01-08T09:55:16.670Z,4.05
2023-01-08T09:57:45.859Z,4.32
2023-01-08T10:00:16.576Z,3.60
2023-01-08T10:02:47.130Z,3.60
2023-01-08T10:05:18.780Z,3.92
2023-01-08T10:07:47.865Z,4.20
2023-01-08T10:10:21.196Z,0.50
2023-01-08T10:12:51.191Z,0.45
2023-01-08T10:17:55.643Z,0.20
2023-01-08T10:20:26.274Z,0.30
2023-01-08T10:22:55.126Z,0.30
2023-01-08T10:25:27.444Z,0.20
2023-01-08T10:28:00.649Z,0.40
2023-01-08T10:30:35.930Z,0.20
2023-01-08T10:33:07.268Z,0.17
2023-01-08T10:35:38.249Z,0.20
2023-01-08T10:38:07.297Z,0.20
2023-01-08T10:40:42.118Z,0.30
2023-01-08T10:43:15.734Z,0.30
2023-01-08T10:45:55.492Z,0.38
2023-01-08T10:48:28.709Z,0.20
2023-01-08T10:51:07.016Z,0.20
2023-01-08T10:53:35.595Z,0.30
2023-01-08T10:56:06.475Z,0.20
2023-01-08T10:58:43.125Z,0.10
2023-01-08T11:01:13.790Z,0.20
2023-01-08T11:03:42.973Z,0.13
2023-01-08T11:06:13.272Z,0.10
2023-01-08T11:08:52.116Z,0.20
2023-01-08T11:11:22.760Z,0.30
2023-01-08T11:13:59.177Z,0.20
2023-01-08T11:16:36.774Z,0.20
2023-01-08T11:19:06.471Z,0.60
2023-01-08T11:21:36.273Z,0.20
2023-01-08T11:24:16.595Z,0.30
2023-01-08T11:26:51.860Z,0.20
2023-01-08T11:29:28.309Z,0.20
2023-01-08T11:32:07.117Z,0.25
2023-01-08T11:34:41.286Z,0.30
2023-01-08T11:37:15.039Z,0.40
2023-01-08T11:39:43.488Z,0.20
2023-01-08T11:42:26.723Z,0.40
2023-01-08T11:45:11.236Z,0.20
2023-01-08T11:47:58.264Z,0.28
2023-01-08T11:50:30.761Z,0.28
2023-01-08T11:53:14.129Z,0.50
2023-01-08T11:55:50.704Z,0.55
2023-01-08T11:58:40.647Z,0.30
2023-01-08T12:01:27.915Z,0.20
2023-01-08T12:04:14.460Z,0.20
2023-01-08T12:06:53.559Z,0.10
2023-01-08T12:09:37.113Z,0.35
2023-01-08T12:12:16.075Z,0.40
2023-01-08T12:14:58.031Z,0.30
2023-01-08T12:17:43.129Z,0.20
2023-01-08T12:20:26.074Z,0.30
2023-01-08T12:23:04.811Z,0.20
2023-01-08T12:25:54.495Z,0.20
2023-01-08T12:28:42.011Z,0.28
2023-01-08T12:31:38.348Z,0.03
2023-01-08T12:34:12.213Z,0.20
2023-01-08T12:36:45.166Z,0.10
2023-01-08T12:39:23.061Z,0.30
2023-01-08T12:41:53.678Z,0.20
2023-01-08T12:44:27.481Z,0.20
2023-01-08T12:47:03.476Z,0.30
2023-01-08T12:49:43.564Z,0.13
2023-01-08T12:52:17.545Z,0.10
2023-01-08T12:54:53.837Z,0.30
2023-01-08T12:57:31.739Z,0.20
2023-01-08T13:00:05.094Z,0.30
2023-01-08T13:02:43.776Z,0.30
2023-01-08T13:05:13.737Z,0.30
2023-01-08T13:07:46.167Z,0.20
2023-01-08T13:10:29.618Z,0.30
2023-01-08T13:12:58.889Z,0.30
2023-01-08T13:15:29.709Z,0.25
2023-01-08T13:18:06.222Z,0.30
2023-01-08T13:20:34.990Z,0.32
2023-01-08T13:23:06.081Z,0.30
2023-01-08T13:25:36.475Z,0.22
2023-01-08T13:28:27.560Z,0.30
2023-01-08T13:30:56.642Z,0.50
2023-01-08T13:33:41.298Z,0.40
2023-01-08T13:36:22.887Z,0.47
2023-01-08T13:39:02.751Z,0.43
2023-01-08T13:41:32.967Z,0.38
2023-01-08T13:44:05.223Z,0.30
2023-01-08T13:46:37.594Z,0.40
2023-01-08T13:49:09.360Z,0.80
2023-01-08T13:51:44.239Z,0.50
2023-01-08T13:54:23.088Z,0.40
2023-01-08T13:56:55.829Z,0.40
2023-01-08T13:59:37.757Z,0.30
2023-01-08T14:02:23.623Z,0.30
2023-01-08T14:04:53.735Z,0.30
2023-01-08T14:07:23.853Z,0.60
2023-01-08T14:09:52.749Z,0.60
2023-01-08T14:12:23.861Z,0.38
2023-01-08T14:14:54.670Z,0.32
2023-01-08T14:17:31.215Z,0.22
2023-01-08T14:20:01.275Z,0.30
2023-01-08T14:22:33.525Z,0.40
2023-01-08T14:25:04.313Z,0.32
2023-01-08T14:27:33.495Z,0.50
2023-01-08T14:30:02.369Z,0.40
2023-01-08T14:32:31.911Z,0.40
2023-01-08T14:35:03.865Z,0.30
2023-01-08T14:37:32.434Z,0.30
2023-01-08T14:40:00.907Z,0.30
2023-01-08T14:42:44.027Z,0.47
2023-01-08T14:45:19.736Z,0.20
2023-01-08T14:47:51.307Z,0.25
2023-01-08T14:50:25.487Z,0.30
2023-01-08T14:52:58.836Z,0.30
2023-01-08T14:55:28.715Z,0.20
2023-01-08T15:00:29.454Z,0.40
2023-01-08T15:02:58.519Z,0.38
2023-01-08T15:05:30.803Z,1.40
2023-01-08T15:08:02.584Z,0.50
2023-01-08T15:10:35.977Z,0.60
2023-01-08T15:13:07.493Z,0.32
2023-01-08T15:15:42.622Z,0.35
2023-01-08T15:18:13.266Z,0.40
2023-01-08T15:20:45.808Z,0.50
2023-01-08T15:23:27.406Z,0.70
2023-01-08T15:25:57.305Z,1.00
2023-01-08T15:30:57.407Z,1.20
2023-01-08T15:33:27.474Z,1.13
2023-01-08T15:35:57.825Z,0.35
2023-01-08T15:38:26.253Z,0.40
2023-01-08T15:40:55.517Z,0.50
2023-01-08T15:43:23.816Z,1.77
2023-01-08T15:45:52.446Z,0.80
2023-01-08T15:48:21.001Z,0.40
2023-01-08T15:50:49.808Z,0.30
2023-01-08T15:53:22.715Z,0.40
2023-01-08T15:55:52.098Z,0.30
2023-01-08T15:58:20.577Z,0.32
2023-01-08T16:00:49.066Z,0.20
2023-01-08T16:03:17.710Z,0.30
2023-01-08T16:05:46.493Z,0.30
2023-01-08T16:08:15.046Z,0.70
2023-01-08T16:10:44.931Z,0.30
2023-01-08T16:15:41.840Z,0.43
2023-01-08T16:18:10.609Z,0.40
2023-01-08T16:20:39.502Z,0.50
2023-01-08T16:23:08.278Z,0.38
2023-01-08T16:25:39.811Z,0.50
2023-01-08T16:28:09.867Z,0.60
2023-01-08T16:33:10.034Z,0.63
2023-01-08T16:35:38.875Z,2.40
2023-01-08T16:38:08.221Z,2.33
2023-01-08T16:40:37.411Z,1.75
2023-01-08T16:43:05.868Z,1.17
2023-01-08T16:45:35.768Z,1.30
2023-01-08T16:48:04.546Z,3.63
2023-01-08T16:50:33.701Z,2.63
2023-01-08T16:53:02.239Z,9.10
2023-01-08T16:55:30.746Z,4.57
2023-01-08T16:58:01.175Z,4.80
2023-01-08T17:00:29.712Z,5.32
2023-01-08T17:02:59.754Z,13.05
2023-01-08T17:05:28.352Z,7.63
2023-01-08T17:07:57.321Z,2.97
2023-01-08T17:10:27.108Z,2.88
2023-01-08T17:12:55.745Z,7.18
2023-01-08T17:15:24.296Z,3.90
2023-01-08T17:17:52.825Z,4.97
2023-01-08T17:20:22.778Z,5.32
2023-01-08T17:22:51.723Z,1.95
2023-01-08T17:25:20.344Z,1.45
2023-01-08T17:27:48.850Z,3.08
2023-01-08T17:30:17.518Z,2.17
2023-01-08T17:32:46.277Z,1.95
2023-01-08T17:35:14.783Z,2.03
2023-01-08T17:37:44.629Z,4.63
2023-01-08T17:40:14.101Z,3.65
2023-01-08T17:42:42.654Z,2.13
2023-01-08T17:45:12.229Z,4.85
2023-01-08T17:47:40.760Z,2.80
2023-01-08T17:50:11.585Z,3.83
2023-01-08T17:52:40.183Z,4.22
2023-01-08T17:55:10.654Z,5.07
2023-01-08T17:57:40.468Z,9.95
2023-01-08T18:00:10.280Z,3.97
2023-01-08T18:02:38.847Z,3.17
2023-01-08T18:05:09.269Z,3.72
2023-01-08T18:07:38.002Z,2.92
2023-01-08T18:10:07.703Z,3.25
2023-01-08T18:12:37.631Z,2.80
2023-01-08T18:15:07.440Z,3.78
2023-01-08T18:17:35.936Z,4.28
2023-01-08T18:20:04.928Z,3.13
2023-01-08T18:22:33.393Z,2.35
2023-01-08T18:25:01.972Z,2.65
2023-01-08T18:27:30.527Z,3.83
2023-01-08T18:30:00.687Z,3.55
2023-01-08T18:32:29.161Z,3.75
2023-01-08T18:34:57.699Z,3.70
2023-01-08T18:37:26.725Z,4.05
2023-01-08T18:39:55.223Z,4.28
2023-01-08T18:42:30.826Z,3.58
2023-01-08T18:45:02.491Z,3.53
2023-01-08T18:47:31.111Z,3.22
2023-01-08T18:50:03.344Z,4.90
2023-01-08T18:52:31.818Z,3.75
2023-01-08T18:55:00.500Z,4.13
2023-01-08T18:57:29.164Z,4.07
2023-01-08T18:59:57.717Z,3.80
2023-01-08T19:02:29.172Z,2.55
2023-01-08T19:04:57.812Z,2.88
2023-01-08T19:07:26.848Z,2.70
2023-01-08T19:09:56.917Z,2.30
2023-01-08T19:12:27.210Z,2.55
2023-01-08T19:14:55.862Z,3.35
2023-01-08T19:17:24.351Z,3.30
2023-01-08T19:19:54.206Z,2.80
2023-01-08T19:22:26.524Z,3.05
2023-01-08T19:24:55.017Z,3.20
2023-01-08T19:27:23.764Z,2.97
2023-01-08T19:29:52.743Z,2.72
2023-01-08T19:32:21.429Z,3.08
2023-01-08T19:34:50.573Z,3.25
2023-01-08T19:37:20.532Z,2.90
2023-01-08T19:42:34.691Z,3.05
2023-01-08T19:45:03.208Z,7.07
2023-01-08T19:47:31.858Z,3.15
2023-01-08T19:50:00.352Z,3.17
2023-01-08T19:52:30.130Z,3.90
2023-01-08T19:54:59.845Z,4.85
2023-01-08T19:57:28.510Z,2.80
2023-01-08T19:59:56.973Z,3.40
2023-01-08T20:02:25.676Z,4.30
2023-01-08T20:04:54.314Z,2.60
2023-01-08T20:07:22.866Z,2.60
2023-01-08T20:09:52.720Z,2.75
2023-01-08T20:12:21.255Z,2.55
2023-01-08T20:14:49.918Z,3.28
2023-01-08T20:17:19.031Z,2.70
2023-01-08T20:19:49.468Z,2.80
2023-01-08T20:22:19.156Z,2.95
2023-01-08T20:24:47.920Z,4.85
2023-01-08T20:27:17.845Z,4.28
2023-01-08T20:29:46.391Z,3.90
2023-01-08T20:32:14.957Z,4.18
2023-01-08T20:34:43.447Z,3.28
2023-01-08T20:37:11.979Z,3.63
2023-01-08T20:39:40.463Z,3.53
2023-01-08T20:42:10.142Z,2.92
2023-01-08T20:44:40.168Z,2.92
2023-01-08T20:49:37.463Z,2.92
2023-01-08T20:52:06.246Z,3.60
2023-01-08T20:54:34.731Z,3.83
2023-01-08T20:57:03.183Z,3.80
2023-01-08T20:59:31.694Z,3.47
2023-01-08T21:02:01.553Z,3.88
2023-01-08T21:04:30.068Z,4.32
2023-01-08T21:06:58.568Z,4.60
2023-01-08T21:09:27.074Z,4.53
2023-01-08T21:11:55.573Z,4.25
2023-01-08T21:14:24.002Z,4.80
2023-01-08T21:16:52.443Z,4.72
2023-01-08T21:19:22.269Z,4.85
2023-01-08T21:21:50.755Z,4.82
2023-01-08T21:24:20.214Z,5.10
2023-01-08T21:26:48.720Z,4.55
2023-01-08T21:29:19.740Z,3.97
2023-01-08T21:31:48.492Z,4.78
2023-01-08T21:34:17.131Z,4.00
2023-01-08T21:36:47.074Z,4.68
2023-01-08T21:42:01.318Z,4.03
2023-01-08T21:44:47.385Z,4.68
2023-01-08T21:47:17.968Z,4.60
2023-01-08T21:49:47.001Z,5.18
2023-01-08T21:52:34.556Z,5.00
2023-01-08T21:55:03.241Z,5.47
2023-01-08T21:57:32.023Z,5.00
2023-01-08T22:00:00.520Z,4.28
2023-01-08T22:02:28.981Z,4.45
2023-01-08T22:04:58.291Z,4.57
2023-01-08T22:07:28.182Z,4.95
2023-01-08T22:09:56.650Z,5.10
2023-01-08T22:12:25.998Z,4.93
2023-01-08T22:14:54.720Z,4.63
2023-01-08T22:17:24.207Z,4.63
2023-01-08T22:19:53.427Z,5.53
2023-01-08T22:22:22.076Z,4.72
2023-01-08T22:24:52.847Z,5.30
2023-01-08T22:27:21.992Z,5.15
2023-01-08T22:29:50.474Z,5.20
2023-01-08T22:32:19.102Z,4.60
2023-01-08T22:34:47.737Z,4.38
2023-01-08T22:37:17.097Z,5.22
2023-01-08T22:39:46.759Z,4.60
2023-01-08T22:42:17.164Z,4.90
2023-01-08T22:44:45.899Z,4.50
2023-01-08T22:47:14.404Z,4.00
2023-01-08T22:49:42.846Z,4.07
2023-01-08T22:52:11.575Z,4.72
2023-01-08T22:54:40.195Z,4.60
2023-01-08T22:57:09.113Z,4.55
2023-01-08T22:59:39.019Z,4.97
2023-01-08T23:02:07.492Z,5.35
2023-01-08T23:04:36.118Z,4.50
2023-01-08T23:07:04.628Z,5.03
2023-01-08T23:09:33.126Z,4.20
2023-01-08T23:12:01.677Z,4.25
2023-01-08T23:14:30.170Z,4.78
2023-01-08T23:16:59.947Z,5.45
2023-01-08T23:19:28.668Z,5.22
2023-01-08T23:21:57.204Z,5.35
2023-01-08T23:24:27.640Z,5.45
2023-01-08T23:26:56.545Z,5.47
2023-01-08T23:29:29.348Z,6.35
2023-01-08T23:31:58.386Z,5.95
2023-01-08T23:34:28.217Z,6.20
2023-01-08T23:36:56.635Z,5.57
2023-01-08T23:39:26.670Z,6.00
2023-01-08T23:44:24.757Z,4.22
2023-01-08T23:46:53.248Z,3.65
2023-01-08T23:49:21.764Z,2.58
2023-01-08T23:51:51.788Z,2.38
2023-01-08T23:59:17.554Z,1.80
